Time,TemperatureF,DewpointF,PressureIn,WindDirection,WindDirectionDegrees,WindSpeedMPH,WindSpeedGustMPH,Humidity,HourlyPrecipIn,Conditions,Clouds,dailyrainin,SoftwareType,DateUTC
2013-03-01 00:01:00,25.0,20.3,30.14,North,0,3.5,3.5,82,0.00,CLR,,0.00,WeatherDisplay:10.37,2013-03-01 06:01:00,
2013-03-01 00:06:00,25.0,20.3,30.14,North,0,3.5,3.5,82,0.00,CLR,,0.00,WeatherDisplay:10.37,2013-03-01 06:06:00,
2013-03-01 00:11:00,25.0,20.3,30.14,North,0,2.4,2.4,82,0.00,CLR,,0.00,WeatherDisplay:10.37,2013-03-01 06:11:00,
2013-03-01 00:16:00,25.0,20.3,30.14,North,0,3.5,3.5,82,0.00,CLR,,0.00,WeatherDisplay:10.37,2013-03-01 06:16:00,
2013-03-01 00:21:00,25.0,20.3,30.14,North,0,4.6,4.6,82,0.00,CLR,,0.00,WeatherDisplay:10.37,2013-03-01 06:21:00,
2013-03-01 00:26:00,24.8,20.1,30.14,North,0,0.0,0.0,82,0.00,CLR,,0.00,WeatherDisplay:10.37,2013-03-01 06:26:00,
2013-03-01 00:31:00,24.8,20.1,30.14,North,0,4.9,5.2,82,0.00,CLR,,0.00,WeatherDisplay:10.37,2013-03-01 06:31:00,
2013-03-01 00:36:00,24.6,19.9,30.14,North,0,4.6,4.6,82,0.00,CLR,,0.00,WeatherDisplay:10.37,2013-03-01 06:36:00,
2013-03-01 00:41:00,24.6,19.9,30.14,North,0,0.0,0.0,82,0.00,CLR,,0.00,WeatherDisplay:10.37,2013-03-01 06:41:00,
2013-03-01 00:46:00,24.6,19.9,30.14,North,0,2.4,2.4,82,0.00,CLR,,0.00,WeatherDisplay:10.37,2013-03-01 06:46:00,
2013-03-01 00:51:00,24.6,19.9,30.14,North,0,5.1,5.5,82,0.00,CLR,,0.00,WeatherDisplay:10.37,2013-03-01 06:51:00,
2013-03-01 00:56:00,24.4,19.7,30.14,North,0,1.1,1.2,82,0.00,CLR,,0.00,WeatherDisplay:10.37,2013-03-01 06:56:00,
2013-03-01 01:01:00,24.4,19.7,30.14,North,0,1.1,1.2,82,0.00,CLR,,0.00,WeatherDisplay:10.37,2013-03-01 07:01:00,
2013-03-01 01:06:00,24.4,19.7,30.14,North,0,3.5,3.5,82,0.00,CLR,,0.00,WeatherDisplay:10.37,2013-03-01 07:06:00,
2013-03-01 01:11:00,24.4,19.7,30.14,North,0,5.1,5.5,82,0.00,CLR,,0.00,WeatherDisplay:10.37,2013-03-01 07:11:00,
2013-03-01 01:16:00,24.4,19.7,30.14,North,0,1.1,1.1,82,0.00,CLR,,0.00,WeatherDisplay:10.37,2013-03-01 07:16:00,
2013-03-01 01:21:00,24.4,19.7,30.14,North,0,3.5,3.7,82,0.00,CLR,,0.00,WeatherDisplay:10.37,2013-03-01 07:21:00,
2013-03-01 01:26:00,24.4,19.7,30.14,North,0,3.5,3.5,82,0.00,CLR,,0.00,WeatherDisplay:10.37,2013-03-01 07:26:00,
2013-03-01 01:31:00,24.4,19.7,30.15,North,0,1.1,1.1,82,0.00,CLR,,0.00,WeatherDisplay:10.37,2013-03-01 07:31:00,
2013-03-01 01:36:00,24.3,19.6,30.14,North,0,0.5,0.6,82,0.00,CLR,,0.00,WeatherDisplay:10.37,2013-03-01 07:36:00,
2013-03-01 01:41:00,24.3,19.6,30.14,North,0,4.6,4.9,82,0.00,CLR,,0.00,WeatherDisplay:10.37,2013-03-01 07:41:00,
2013-03-01 01:46:00,24.3,19.6,30.14,North,0,0.0,0.0,82,0.00,CLR,,0.00,WeatherDisplay:10.37,2013-03-01 07:46:00,
2013-03-01 01:51:00,24.3,19.6,30.14,North,0,0.0,0.0,82,0.00,CLR,,0.00,WeatherDisplay:10.37,2013-03-01 07:51:00,
2013-03-01 01:56:00,24.3,19.6,30.14,North,0,4.6,4.9,82,0.00,CLR,,0.00,WeatherDisplay:10.37,2013-03-01 07:56:00,
2013-03-01 02:01:00,24.3,19.6,30.14,North,0,2.3,2.4,82,0.00,CLR,,0.00,WeatherDisplay:10.37,2013-03-01 08:01:00,
2013-03-01 02:06:00,24.3,19.6,30.14,North,0,4.6,4.6,82,0.00,CLR,,0.00,WeatherDisplay:10.37,2013-03-01 08:06:00,
2013-03-01 02:11:00,24.3,19.6,30.14,North,0,3.5,3.5,82,0.00,CLR,,0.00,WeatherDisplay:10.37,2013-03-01 08:11:00,
2013-03-01 02:16:00,24.3,19.6,30.14,North,0,2.3,2.3,82,0.00,CLR,,0.00,WeatherDisplay:10.37,2013-03-01 08:16:00,
2013-03-01 02:21:00,24.3,19.6,30.14,North,0,0.0,0.0,82,0.00,CLR,,0.00,WeatherDisplay:10.37,2013-03-01 08:21:00,
2013-03-01 02:26:00,24.1,19.4,30.14,North,0,1.1,1.1,82,0.00,CLR,,0.00,WeatherDisplay:10.37,2013-03-01 08:26:00,
2013-03-01 02:31:00,24.1,19.4,30.14,North,0,4.6,4.6,82,0.00,CLR,,0.00,WeatherDisplay:10.37,2013-03-01 08:31:00,
2013-03-01 02:36:00,24.1,19.4,30.13,North,0,0.0,0.0,82,0.00,CLR,,0.00,WeatherDisplay:10.37,2013-03-01 08:36:00,
2013-03-01 02:41:00,24.1,19.4,30.14,North,0,1.1,1.2,82,0.00,CLR,,0.00,WeatherDisplay:10.37,2013-03-01 08:41:00,
2013-03-01 02:46:00,24.1,19.4,30.14,North,0,2.4,2.4,82,0.00,CLR,,0.00,WeatherDisplay:10.37,2013-03-01 08:46:00,
2013-03-01 02:51:00,24.1,19.7,30.14,North,0,1.4,1.4,83,0.00,CLR,,0.00,WeatherDisplay:10.37,2013-03-01 08:51:00,
2013-03-01 02:56:00,23.9,19.5,30.14,North,0,3.2,3.2,83,0.00,CLR,,0.00,WeatherDisplay:10.37,2013-03-01 08:56:00,
2013-03-01 03:01:00,24.1,19.7,30.14,North,0,6.9,6.9,83,0.00,CLR,,0.00,WeatherDisplay:10.37,2013-03-01 09:01:00,
2013-03-01 03:06:00,24.1,19.7,30.13,North,0,4.6,4.9,83,0.00,CLR,,0.00,WeatherDisplay:10.37,2013-03-01 09:06:00,
2013-03-01 03:11:00,23.9,19.5,30.13,North,0,2.3,2.3,83,0.00,CLR,,0.00,WeatherDisplay:10.37,2013-03-01 09:11:00,
2013-03-01 03:16:00,23.9,19.5,30.13,North,0,4.6,4.6,83,0.00,CLR,,0.00,WeatherDisplay:10.37,2013-03-01 09:16:00,
2013-03-01 03:21:00,23.9,19.5,30.13,North,0,0.0,0.0,83,0.00,CLR,,0.00,WeatherDisplay:10.37,2013-03-01 09:21:00,
2013-03-01 03:26:00,23.9,19.5,30.14,North,0,2.3,2.3,83,0.00,CLR,,0.00,WeatherDisplay:10.37,2013-03-01 09:26:00,
2013-03-01 03:31:00,23.9,19.5,30.14,North,0,2.3,2.3,83,0.00,CLR,,0.00,WeatherDisplay:10.37,2013-03-01 09:31:00,
2013-03-01 03:36:00,23.9,19.5,30.13,North,0,4.6,4.6,83,0.00,CLR,,0.00,WeatherDisplay:10.37,2013-03-01 09:36:00,
2013-03-01 03:41:00,23.9,19.5,30.13,North,0,3.5,3.5,83,0.00,CLR,,0.00,WeatherDisplay:10.37,2013-03-01 09:41:00,
2013-03-01 03:46:00,23.9,19.5,30.14,North,0,0.0,0.0,83,0.00,CLR,,0.00,WeatherDisplay:10.37,2013-03-01 09:46:00,
2013-03-01 03:51:00,23.9,19.5,30.14,North,0,3.5,3.5,83,0.00,CLR,,0.00,WeatherDisplay:10.37,2013-03-01 09:51:00,
2013-03-01 03:56:00,23.7,19.3,30.14,North,0,2.7,2.7,83,0.00,CLR,,0.00,WeatherDisplay:10.37,2013-03-01 09:56:00,
2013-03-01 04:01:00,23.9,19.5,30.14,North,0,2.3,2.3,83,0.00,CLR,,0.00,WeatherDisplay:10.37,2013-03-01 10:01:00,
2013-03-01 04:06:00,23.7,19.3,30.14,North,0,0.0,0.0,83,0.00,CLR,,0.00,WeatherDisplay:10.37,2013-03-01 10:06:00,
2013-03-01 04:11:00,23.7,19.3,30.14,North,0,3.8,4.1,83,0.00,CLR,,0.00,WeatherDisplay:10.37,2013-03-01 10:11:00,
2013-03-01 04:16:00,23.7,19.3,30.14,North,0,4.6,4.6,83,0.00,CLR,,0.00,WeatherDisplay:10.37,2013-03-01 10:16:00,
2013-03-01 04:21:00,23.7,19.3,30.14,North,0,0.0,0.0,83,0.00,CLR,,0.00,WeatherDisplay:10.37,2013-03-01 10:21:00,
2013-03-01 04:26:00,23.7,19.3,30.14,North,0,5.9,5.9,83,0.00,CLR,,0.00,WeatherDisplay:10.37,2013-03-01 10:26:00,
2013-03-01 04:31:00,23.7,19.3,30.14,North,0,4.6,4.6,83,0.00,CLR,,0.00,WeatherDisplay:10.37,2013-03-01 10:31:00,
2013-03-01 04:36:00,23.7,19.6,30.14,North,0,3.8,4.1,84,0.00,CLR,,0.00,WeatherDisplay:10.37,2013-03-01 10:36:00,
2013-03-01 04:41:00,23.7,19.6,30.15,North,0,2.7,2.7,84,0.00,CLR,,0.00,WeatherDisplay:10.37,2013-03-01 10:41:00,
2013-03-01 04:46:00,23.7,19.6,30.15,North,0,2.3,2.6,84,0.00,CLR,,0.00,WeatherDisplay:10.37,2013-03-01 10:46:00,
2013-03-01 04:51:00,23.7,19.6,30.14,North,0,3.5,4.1,84,0.00,CLR,,0.00,WeatherDisplay:10.37,2013-03-01 10:51:00,
2013-03-01 04:56:00,23.5,19.4,30.15,North,0,3.5,3.5,84,0.00,CLR,,0.00,WeatherDisplay:10.37,2013-03-01 10:56:00,
2013-03-01 05:01:00,23.5,19.4,30.15,North,0,2.4,2.6,84,0.00,CLR,,0.00,WeatherDisplay:10.37,2013-03-01 11:01:00,
2013-03-01 05:07:00,23.5,19.4,30.15,North,0,4.6,4.6,84,0.00,CLR,,0.00,WeatherDisplay:10.37,2013-03-01 11:07:00,
2013-03-01 05:12:00,23.5,19.4,30.15,North,0,3.5,0.0,84,0.00,CLR,,0.00,WeatherDisplay:10.37,2013-03-01 11:12:00,
2013-03-01 05:17:00,23.4,19.2,30.15,North,0,1.1,1.1,84,0.00,CLR,,0.00,WeatherDisplay:10.37,2013-03-01 11:17:00,
2013-03-01 05:22:00,23.4,19.2,30.15,North,0,2.3,2.7,84,0.00,CLR,,0.00,WeatherDisplay:10.37,2013-03-01 11:22:00,
2013-03-01 05:27:00,23.4,19.2,30.15,North,0,0.0,0.0,84,0.00,CLR,,0.00,WeatherDisplay:10.37,2013-03-01 11:27:00,
2013-03-01 05:32:00,23.4,19.2,30.15,North,0,0.0,0.0,84,0.00,CLR,,0.00,WeatherDisplay:10.37,2013-03-01 11:32:00,
2013-03-01 05:37:00,23.4,19.2,30.15,North,0,2.3,2.3,84,0.00,CLR,,0.00,WeatherDisplay:10.37,2013-03-01 11:37:00,
2013-03-01 05:42:00,23.4,19.2,30.15,North,0,1.6,1.7,84,0.00,CLR,,0.00,WeatherDisplay:10.37,2013-03-01 11:42:00,
2013-03-01 05:47:00,23.4,19.2,30.16,North,0,0.0,0.0,84,0.00,CLR,,0.00,WeatherDisplay:10.37,2013-03-01 11:47:00,
2013-03-01 05:52:00,23.4,19.2,30.15,North,0,4.6,4.6,84,0.00,CLR,,0.00,WeatherDisplay:10.37,2013-03-01 11:52:00,
2013-03-01 05:57:00,23.2,19.1,30.16,North,0,4.6,4.9,84,0.00,CLR,,0.00,WeatherDisplay:10.37,2013-03-01 11:57:00,
2013-03-01 06:02:00,23.4,19.2,30.15,North,0,3.5,3.5,84,0.00,CLR,,0.00,WeatherDisplay:10.37,2013-03-01 12:02:00,
2013-03-01 06:07:00,23.4,19.2,30.16,North,0,5.8,5.8,84,0.00,CLR,,0.00,WeatherDisplay:10.37,2013-03-01 12:07:00,
2013-03-01 06:12:00,23.2,19.1,30.16,North,0,4.6,4.6,84,0.00,CLR,,0.00,WeatherDisplay:10.37,2013-03-01 12:12:00,
2013-03-01 06:17:00,23.2,19.1,30.16,North,0,3.5,3.5,84,0.00,CLR,,0.00,WeatherDisplay:10.37,2013-03-01 12:17:00,
2013-03-01 06:22:00,23.2,19.1,30.16,North,0,4.6,4.6,84,0.00,CLR,,0.00,WeatherDisplay:10.37,2013-03-01 12:22:00,
2013-03-01 06:27:00,23.2,19.1,30.16,North,0,2.3,0.0,84,0.00,CLR,,0.00,WeatherDisplay:10.37,2013-03-01 12:27:00,
2013-03-01 06:32:00,23.2,19.1,30.17,North,0,2.3,2.3,84,0.00,CLR,,0.00,WeatherDisplay:10.37,2013-03-01 12:32:00,
2013-03-01 06:37:00,23.2,19.1,30.16,North,0,5.8,5.8,84,0.00,CLR,,0.00,WeatherDisplay:10.37,2013-03-01 12:37:00,
2013-03-01 06:42:00,23.4,19.2,30.16,North,0,2.3,2.3,84,0.00,CLR,,0.00,WeatherDisplay:10.37,2013-03-01 12:42:00,
2013-03-01 06:47:00,23.2,18.8,30.16,North,0,3.5,4.4,83,0.00,CLR,,0.00,WeatherDisplay:10.37,2013-03-01 12:47:00,
2013-03-01 06:52:00,23.2,18.8,30.16,North,0,4.6,4.6,83,0.00,CLR,,0.00,WeatherDisplay:10.37,2013-03-01 12:52:00,
2013-03-01 06:57:00,23.2,18.8,30.17,North,0,2.3,2.3,83,0.00,CLR,,0.00,WeatherDisplay:10.37,2013-03-01 12:57:00,
2013-03-01 07:02:00,23.2,18.8,30.17,NNE,22,5.8,5.8,83,0.00,CLR,,0.00,WeatherDisplay:10.37,2013-03-01 13:02:00,
2013-03-01 07:07:00,23.2,18.8,30.17,NNE,22,0.0,0.0,83,0.00,CLR,,0.00,WeatherDisplay:10.37,2013-03-01 13:07:00,
2013-03-01 07:12:00,23.2,18.8,30.17,NNE,22,5.8,5.8,83,0.00,CLR,,0.00,WeatherDisplay:10.37,2013-03-01 13:12:00,
2013-03-01 07:17:00,23.2,18.8,30.17,North,0,0.0,0.0,83,0.00,CLR,,0.00,WeatherDisplay:10.37,2013-03-01 13:17:00,
2013-03-01 07:22:00,23.2,18.8,30.17,North,0,1.1,0.0,83,0.00,CLR,,0.00,WeatherDisplay:10.37,2013-03-01 13:22:00,
2013-03-01 07:27:00,23.2,18.8,30.18,North,0,0.5,0.6,83,0.00,CLR,,0.00,WeatherDisplay:10.37,2013-03-01 13:27:00,
2013-03-01 07:32:00,23.2,18.8,30.18,North,0,0.0,0.0,83,0.00,CLR,,0.00,WeatherDisplay:10.37,2013-03-01 13:32:00,
2013-03-01 07:37:00,23.4,19.0,30.18,North,0,1.1,0.0,83,0.00,CLR,,0.00,WeatherDisplay:10.37,2013-03-01 13:37:00,
2013-03-01 07:42:00,23.4,19.0,30.18,North,0,2.3,2.6,83,0.00,CLR,,0.00,WeatherDisplay:10.37,2013-03-01 13:42:00,
2013-03-01 07:47:00,23.5,19.1,30.18,North,0,2.3,2.3,83,0.00,CLR,,0.00,WeatherDisplay:10.37,2013-03-01 13:47:00,
2013-03-01 07:52:00,23.7,19.3,30.19,North,0,5.8,5.8,83,0.00,CLR,,0.00,WeatherDisplay:10.37,2013-03-01 13:52:00,
2013-03-01 07:57:00,23.7,19.3,30.19,North,0,0.0,0.0,83,0.00,CLR,,0.00,WeatherDisplay:10.37,2013-03-01 13:57:00,
2013-03-01 08:02:00,24.1,19.7,30.19,North,0,1.1,1.1,83,0.00,CLR,,0.00,WeatherDisplay:10.37,2013-03-01 14:02:00,
2013-03-01 08:07:00,24.3,19.8,30.19,North,0,2.3,0.0,83,0.00,CLR,,0.00,WeatherDisplay:10.37,2013-03-01 14:07:00,
2013-03-01 08:12:00,24.3,19.8,30.19,North,0,0.8,0.0,83,0.00,CLR,,0.00,WeatherDisplay:10.37,2013-03-01 14:12:00,
2013-03-01 08:17:00,24.6,20.2,30.19,North,0,2.3,2.3,83,0.00,CLR,,0.00,WeatherDisplay:10.37,2013-03-01 14:17:00,
2013-03-01 08:22:00,25.0,20.5,30.19,North,0,0.0,0.0,83,0.00,CLR,,0.00,WeatherDisplay:10.37,2013-03-01 14:22:00,
2013-03-01 08:27:00,25.2,20.7,30.19,North,0,1.1,1.7,83,0.00,CLR,,0.00,WeatherDisplay:10.37,2013-03-01 14:27:00,
2013-03-01 08:32:00,25.5,21.1,30.20,North,0,2.3,2.3,83,0.00,CLR,,0.00,WeatherDisplay:10.37,2013-03-01 14:32:00,
2013-03-01 08:37:00,25.7,21.3,30.20,North,0,2.3,2.3,83,0.00,CLR,,0.00,WeatherDisplay:10.37,2013-03-01 14:37:00,
2013-03-01 08:42:00,25.9,21.1,30.19,North,0,2.3,2.4,82,0.00,CLR,,0.00,WeatherDisplay:10.37,2013-03-01 14:42:00,
2013-03-01 08:47:00,26.2,21.5,30.20,North,0,1.1,1.1,82,0.00,CLR,,0.00,WeatherDisplay:10.37,2013-03-01 14:47:00,
2013-03-01 08:52:00,26.4,21.7,30.20,NNE,22,4.6,4.6,82,0.00,CLR,,0.00,WeatherDisplay:10.37,2013-03-01 14:52:00,
2013-03-01 08:57:00,26.8,21.7,30.20,North,0,4.6,4.6,81,0.00,CLR,,0.00,WeatherDisplay:10.37,2013-03-01 14:57:00,
2013-03-01 09:02:00,27.3,22.3,30.20,North,0,3.5,3.7,81,0.00,CLR,,0.00,WeatherDisplay:10.37,2013-03-01 15:02:00,
2013-03-01 09:07:00,27.5,22.1,30.20,North,0,2.3,0.0,80,0.00,CLR,,0.00,WeatherDisplay:10.37,2013-03-01 15:07:00,
2013-03-01 09:12:00,28.0,22.7,30.20,North,0,0.0,0.0,80,0.00,CLR,,0.00,WeatherDisplay:10.37,2013-03-01 15:12:00,
2013-03-01 09:17:00,28.6,22.9,30.20,North,0,5.8,5.8,79,0.00,CLR,,0.00,WeatherDisplay:10.37,2013-03-01 15:17:00,
2013-03-01 09:22:00,28.9,23.2,30.20,North,0,4.9,5.2,79,0.00,CLR,,0.00,WeatherDisplay:10.37,2013-03-01 15:22:00,
2013-03-01 09:27:00,29.3,23.3,30.20,NNE,22,0.0,0.0,78,0.00,CLR,,0.00,WeatherDisplay:10.37,2013-03-01 15:27:00,
2013-03-01 09:32:00,29.5,23.2,30.21,NNE,22,1.1,0.0,77,0.00,CLR,,0.00,WeatherDisplay:10.37,2013-03-01 15:32:00,
2013-03-01 09:37:00,29.8,23.5,30.21,NNE,22,4.6,4.9,77,0.00,CLR,,0.00,WeatherDisplay:10.37,2013-03-01 15:37:00,
2013-03-01 09:42:00,30.0,23.4,30.21,NNE,22,4.6,4.6,76,0.00,CLR,,0.00,WeatherDisplay:10.37,2013-03-01 15:42:00,
2013-03-01 09:47:00,30.2,23.2,30.21,NNE,22,5.8,5.8,75,0.00,CLR,,0.00,WeatherDisplay:10.37,2013-03-01 15:47:00,
2013-03-01 09:52:00,30.4,23.1,30.21,NNE,22,5.8,6.1,74,0.00,CLR,,0.00,WeatherDisplay:10.37,2013-03-01 15:52:00,
2013-03-01 09:57:00,30.6,23.3,30.21,NNE,22,3.5,3.5,74,0.00,CLR,,0.00,WeatherDisplay:10.37,2013-03-01 15:57:00,
2013-03-01 10:02:00,30.6,22.9,30.21,NNE,22,6.9,6.9,73,0.00,CLR,,0.00,WeatherDisplay:10.37,2013-03-01 16:02:00,
2013-03-01 10:07:00,30.6,22.9,30.21,NNE,22,2.3,2.3,73,0.00,CLR,,0.00,WeatherDisplay:10.37,2013-03-01 16:07:00,
2013-03-01 10:12:00,31.6,24.0,30.21,NNE,22,6.9,6.9,73,0.00,CLR,,0.00,WeatherDisplay:10.37,2013-03-01 16:12:00,
2013-03-01 10:17:00,31.8,23.8,30.22,NNE,22,6.9,7.2,72,0.00,CLR,,0.00,WeatherDisplay:10.37,2013-03-01 16:17:00,
2013-03-01 10:22:00,32.2,23.8,30.22,NNE,22,5.8,5.8,71,0.00,CLR,,0.00,WeatherDisplay:10.37,2013-03-01 16:22:00,
2013-03-01 10:27:00,32.4,24.0,30.22,NNE,22,4.6,4.6,71,0.00,CLR,,0.00,WeatherDisplay:10.37,2013-03-01 16:27:00,
2013-03-01 10:32:00,32.7,24.0,30.22,NNE,22,1.6,1.7,70,0.00,CLR,,0.00,WeatherDisplay:10.37,2013-03-01 16:32:00,
2013-03-01 10:37:00,32.9,24.2,30.21,NNE,22,5.8,5.8,70,0.00,CLR,,0.00,WeatherDisplay:10.37,2013-03-01 16:37:00,
2013-03-01 10:42:00,32.9,23.8,30.21,NNE,22,5.8,6.1,69,0.00,CLR,,0.00,WeatherDisplay:10.37,2013-03-01 16:42:00,
2013-03-01 10:47:00,32.9,23.8,30.21,NNE,22,7.3,7.8,69,0.00,CLR,,0.00,WeatherDisplay:10.37,2013-03-01 16:47:00,
2013-03-01 10:52:00,33.3,24.2,30.21,NNE,22,6.9,6.9,69,0.00,CLR,,0.00,WeatherDisplay:10.37,2013-03-01 16:52:00,
2013-03-01 10:57:00,33.4,24.0,30.21,NNE,22,4.9,5.2,68,0.00,CLR,,0.00,WeatherDisplay:10.37,2013-03-01 16:57:00,
2013-03-01 11:02:00,33.3,23.5,30.21,NNE,22,5.8,6.1,67,0.00,CLR,,0.00,WeatherDisplay:10.37,2013-03-01 17:02:00,
2013-03-01 11:07:00,32.9,23.1,30.21,NNE,22,5.8,5.8,67,0.00,CLR,,0.00,WeatherDisplay:10.37,2013-03-01 17:07:00,
2013-03-01 11:12:00,33.1,23.3,30.22,NNE,22,4.6,4.9,67,0.00,CLR,,0.00,WeatherDisplay:10.37,2013-03-01 17:12:00,
2013-03-01 11:17:00,33.6,24.2,30.22,NNE,22,4.6,4.6,68,0.00,CLR,,0.00,WeatherDisplay:10.37,2013-03-01 17:17:00,
2013-03-01 11:22:00,35.1,25.6,30.22,NNE,22,5.8,5.8,68,0.00,CLR,,0.00,WeatherDisplay:10.37,2013-03-01 17:22:00,
2013-03-01 11:27:00,35.2,25.0,30.22,NNE,22,5.8,5.8,66,0.00,CLR,,0.00,WeatherDisplay:10.37,2013-03-01 17:27:00,
2013-03-01 11:32:00,35.8,25.5,30.22,NNE,22,4.6,4.6,66,0.00,CLR,,0.00,WeatherDisplay:10.37,2013-03-01 17:32:00,
2013-03-01 11:37:00,36.1,25.5,30.22,NNE,22,3.5,3.5,65,0.00,CLR,,0.00,WeatherDisplay:10.37,2013-03-01 17:37:00,
2013-03-01 11:42:00,36.0,25.0,30.21,NNE,22,3.5,3.5,64,0.00,CLR,,0.00,WeatherDisplay:10.37,2013-03-01 17:42:00,
2013-03-01 11:47:00,35.8,24.4,30.21,NNE,22,5.8,5.8,63,0.00,CLR,,0.00,WeatherDisplay:10.37,2013-03-01 17:47:00,
2013-03-01 11:52:00,35.2,23.9,30.21,NNE,22,4.6,4.6,63,0.00,CLR,,0.00,WeatherDisplay:10.37,2013-03-01 17:52:00,
2013-03-01 11:57:00,34.9,23.2,30.22,NNE,22,3.8,4.1,62,0.00,CLR,,0.00,WeatherDisplay:10.37,2013-03-01 17:57:00,
2013-03-01 12:02:00,35.4,24.4,30.22,NNE,22,5.8,5.9,64,0.00,CLR,,0.00,WeatherDisplay:10.37,2013-03-01 18:02:00,
2013-03-01 12:07:00,35.2,23.5,30.22,NNE,22,5.8,5.8,62,0.00,CLR,,0.00,WeatherDisplay:10.37,2013-03-01 18:07:00,
2013-03-01 12:12:00,35.1,23.3,30.22,North,0,0.0,0.0,62,0.00,CLR,,0.00,WeatherDisplay:10.37,2013-03-01 18:12:00,
2013-03-01 12:17:00,35.6,24.2,30.22,NNE,22,2.3,2.9,63,0.00,CLR,,0.00,WeatherDisplay:10.37,2013-03-01 18:17:00,
2013-03-01 12:22:00,35.6,24.2,30.22,NNE,22,3.5,3.5,63,0.00,CLR,,0.00,WeatherDisplay:10.37,2013-03-01 18:22:00,
2013-03-01 12:27:00,35.2,23.5,30.22,NNE,22,0.0,0.0,62,0.00,CLR,,0.00,WeatherDisplay:10.37,2013-03-01 18:27:00,
2013-03-01 12:32:00,35.1,23.3,30.22,NNE,22,2.3,2.6,62,0.00,CLR,,0.00,WeatherDisplay:10.37,2013-03-01 18:32:00,
2013-03-01 12:37:00,35.1,23.3,30.22,NNE,22,3.5,3.5,62,0.00,CLR,,0.00,WeatherDisplay:10.37,2013-03-01 18:37:00,
2013-03-01 12:42:00,35.4,23.7,30.21,NNE,22,6.9,6.9,62,0.00,CLR,,0.00,WeatherDisplay:10.37,2013-03-01 18:42:00,
2013-03-01 12:47:00,35.8,24.0,30.22,NNE,22,0.0,0.0,62,0.00,CLR,,0.00,WeatherDisplay:10.37,2013-03-01 18:47:00,
2013-03-01 12:52:00,35.8,23.6,30.21,NNE,22,4.6,4.6,61,0.00,CLR,,0.00,WeatherDisplay:10.37,2013-03-01 18:52:00,
2013-03-01 12:57:00,36.1,24.0,30.21,NNE,22,5.9,6.4,61,0.00,CLR,,0.00,WeatherDisplay:10.37,2013-03-01 18:57:00,
2013-03-01 13:02:00,36.9,24.7,30.21,North,0,4.6,4.6,61,0.00,CLR,,0.00,WeatherDisplay:10.37,2013-03-01 19:02:00,
2013-03-01 13:07:00,36.9,24.3,30.21,North,0,0.0,0.0,60,0.00,CLR,,0.00,WeatherDisplay:10.37,2013-03-01 19:07:00,
2013-03-01 13:12:00,36.3,23.3,30.21,North,0,0.0,0.0,59,0.00,CLR,,0.00,WeatherDisplay:10.37,2013-03-01 19:12:00,
2013-03-01 13:17:00,36.0,23.0,30.21,NNE,22,6.9,6.9,59,0.00,CLR,,0.00,WeatherDisplay:10.37,2013-03-01 19:17:00,
2013-03-01 13:22:00,35.2,22.3,30.21,NNE,22,5.1,5.4,59,0.00,CLR,,0.00,WeatherDisplay:10.37,2013-03-01 19:22:00,
2013-03-01 13:27:00,35.1,22.2,30.21,NNE,22,2.3,2.3,59,0.00,CLR,,0.00,WeatherDisplay:10.37,2013-03-01 19:27:00,
2013-03-01 13:32:00,35.2,22.3,30.21,NNE,22,5.8,5.8,59,0.00,CLR,,0.00,WeatherDisplay:10.37,2013-03-01 19:32:00,
2013-03-01 13:37:00,34.7,21.8,30.21,NNE,22,5.8,5.8,59,0.00,CLR,,0.00,WeatherDisplay:10.37,2013-03-01 19:37:00,
2013-03-01 13:42:00,34.5,21.7,30.21,NNE,22,3.5,3.5,59,0.00,CLR,,0.00,WeatherDisplay:10.37,2013-03-01 19:42:00,
2013-03-01 13:47:00,34.2,21.3,30.21,NNE,22,4.6,4.6,59,0.00,CLR,,0.00,WeatherDisplay:10.37,2013-03-01 19:47:00,
2013-03-01 13:53:00,33.8,21.0,30.21,NNE,22,6.9,6.9,59,0.00,CLR,,0.00,WeatherDisplay:10.37,2013-03-01 19:53:00,
2013-03-01 13:58:00,32.7,20.0,30.21,NNE,22,6.2,6.2,59,0.00,CLR,,0.00,WeatherDisplay:10.37,2013-03-01 19:58:00,
2013-03-01 14:03:00,32.7,20.4,30.21,NNE,22,5.8,5.8,60,0.00,CLR,,0.00,WeatherDisplay:10.37,2013-03-01 20:03:00,
2013-03-01 14:08:00,32.2,19.8,30.21,NNE,22,6.9,6.9,60,0.00,CLR,,0.00,WeatherDisplay:10.37,2013-03-01 20:08:00,
2013-03-01 14:13:00,32.0,20.1,30.21,NNE,22,5.8,6.0,61,0.00,CLR,,0.00,WeatherDisplay:10.37,2013-03-01 20:13:00,
2013-03-01 14:18:00,32.2,20.6,30.21,NNE,22,5.8,5.8,62,0.00,CLR,,0.00,WeatherDisplay:10.37,2013-03-01 20:18:00,
2013-03-01 14:23:00,32.2,20.6,30.21,NNE,22,4.9,5.2,62,0.00,CLR,,0.00,WeatherDisplay:10.37,2013-03-01 20:23:00,
2013-03-01 14:28:00,32.2,21.0,30.21,NNE,22,5.8,5.8,63,0.00,CLR,,0.00,WeatherDisplay:10.37,2013-03-01 20:28:00,
2013-03-01 14:33:00,32.2,21.4,30.22,NNE,22,4.9,5.2,64,0.00,CLR,,0.00,WeatherDisplay:10.37,2013-03-01 20:33:00,
2013-03-01 14:38:00,32.2,21.4,30.21,North,0,2.3,2.6,64,0.00,CLR,,0.00,WeatherDisplay:10.37,2013-03-01 20:38:00,
2013-03-01 14:43:00,32.2,21.0,30.22,NNE,22,6.9,6.9,63,0.00,CLR,,0.00,WeatherDisplay:10.37,2013-03-01 20:43:00,
2013-03-01 14:48:00,31.8,20.6,30.22,North,0,3.8,4.1,63,0.00,CLR,,0.00,WeatherDisplay:10.37,2013-03-01 20:48:00,
2013-03-01 14:53:00,31.6,20.8,30.22,NNE,22,5.8,6.1,64,0.00,CLR,,0.00,WeatherDisplay:10.37,2013-03-01 20:53:00,
2013-03-01 14:58:00,31.5,20.7,30.22,NNE,22,4.9,5.2,64,0.00,CLR,,0.00,WeatherDisplay:10.37,2013-03-01 20:58:00,
2013-03-01 15:03:00,31.5,20.7,30.22,NNE,22,5.9,6.4,64,0.00,CLR,,0.00,WeatherDisplay:10.37,2013-03-01 21:03:00,
2013-03-01 15:08:00,31.1,20.3,30.22,NNE,22,6.9,6.9,64,0.00,CLR,,0.00,WeatherDisplay:10.37,2013-03-01 21:08:00,
2013-03-01 15:13:00,30.6,19.8,30.22,NNE,22,6.9,6.9,64,0.00,CLR,,0.00,WeatherDisplay:10.37,2013-03-01 21:13:00,
2013-03-01 15:18:00,30.4,19.6,30.23,NNE,22,2.4,2.6,64,0.00,CLR,,0.00,WeatherDisplay:10.37,2013-03-01 21:18:00,
2013-03-01 15:23:00,29.8,19.1,30.23,North,0,6.9,6.9,64,0.00,CLR,,0.00,WeatherDisplay:10.37,2013-03-01 21:23:00,
2013-03-01 15:28:00,29.5,19.2,30.23,North,0,4.9,5.2,65,0.00,CLR,,0.00,WeatherDisplay:10.37,2013-03-01 21:28:00,
2013-03-01 15:33:00,29.3,19.3,30.23,North,0,6.9,6.9,66,0.00,CLR,,0.00,WeatherDisplay:10.37,2013-03-01 21:33:00,
2013-03-01 15:38:00,28.9,19.0,30.23,North,0,8.1,8.1,66,0.00,CLR,,0.00,WeatherDisplay:10.37,2013-03-01 21:38:00,
2013-03-01 15:43:00,28.6,18.7,30.23,North,0,6.2,6.7,66,0.00,CLR,,0.00,WeatherDisplay:10.37,2013-03-01 21:43:00,
2013-03-01 15:48:00,28.2,18.7,30.23,North,0,5.1,5.5,67,0.00,CLR,,0.00,WeatherDisplay:10.37,2013-03-01 21:48:00,
2013-03-01 15:53:00,27.9,18.3,30.23,North,0,6.9,6.9,67,0.00,CLR,,0.00,WeatherDisplay:10.37,2013-03-01 21:53:00,
2013-03-01 15:58:00,27.7,18.1,30.23,North,0,6.2,6.7,67,0.00,CLR,,0.00,WeatherDisplay:10.37,2013-03-01 21:58:00,
2013-03-01 16:03:00,27.5,18.3,30.23,North,0,1.1,1.4,68,0.00,CLR,,0.00,WeatherDisplay:10.37,2013-03-01 22:03:00,
2013-03-01 16:08:00,27.7,18.8,30.23,North,0,5.8,5.8,69,0.00,CLR,,0.00,WeatherDisplay:10.37,2013-03-01 22:08:00,
2013-03-01 16:13:00,27.5,18.7,30.23,North,0,5.8,6.1,69,0.00,CLR,,0.00,WeatherDisplay:10.37,2013-03-01 22:13:00,
2013-03-01 16:18:00,27.3,18.5,30.23,North,0,6.2,6.7,69,0.00,CLR,,0.00,WeatherDisplay:10.37,2013-03-01 22:18:00,
2013-03-01 16:23:00,27.3,18.5,30.23,North,0,6.9,6.9,69,0.00,CLR,,0.00,WeatherDisplay:10.37,2013-03-01 22:23:00,
2013-03-01 16:28:00,27.1,18.3,30.23,North,0,3.5,3.8,69,0.00,CLR,,0.00,WeatherDisplay:10.37,2013-03-01 22:28:00,
2013-03-01 16:33:00,27.0,18.1,30.23,North,0,7.3,7.3,69,0.00,CLR,,0.00,WeatherDisplay:10.37,2013-03-01 22:33:00,
2013-03-01 16:38:00,26.8,18.0,30.23,North,0,4.6,4.6,69,0.00,CLR,,0.00,WeatherDisplay:10.37,2013-03-01 22:38:00,
2013-03-01 16:43:00,26.8,18.0,30.23,NNE,22,6.9,7.2,69,0.00,CLR,,0.00,WeatherDisplay:10.37,2013-03-01 22:43:00,
2013-03-01 16:48:00,26.6,17.8,30.23,NNE,22,4.6,4.6,69,0.00,CLR,,0.00,WeatherDisplay:10.37,2013-03-01 22:48:00,
2013-03-01 16:53:00,26.4,17.6,30.23,NNE,22,4.9,4.9,69,0.00,CLR,,0.00,WeatherDisplay:10.37,2013-03-01 22:53:00,
2013-03-01 16:58:00,26.2,17.8,30.25,North,0,6.9,7.2,70,0.00,CLR,,0.00,WeatherDisplay:10.37,2013-03-01 22:58:00,
2013-03-01 17:03:00,25.9,17.4,30.25,North,0,6.2,6.7,70,0.00,CLR,,0.00,WeatherDisplay:10.37,2013-03-01 23:03:00,
2013-03-01 17:08:00,25.7,17.3,30.25,North,0,6.9,6.9,70,0.00,CLR,,0.00,WeatherDisplay:10.37,2013-03-01 23:08:00,
2013-03-01 17:13:00,25.7,17.3,30.25,North,0,4.9,5.2,70,0.00,CLR,,0.00,WeatherDisplay:10.37,2013-03-01 23:13:00,
2013-03-01 17:18:00,25.5,17.1,30.25,North,0,8.1,8.1,70,0.00,CLR,,0.00,WeatherDisplay:10.37,2013-03-01 23:18:00,
2013-03-01 17:23:00,25.2,16.7,30.25,North,0,6.2,6.5,70,0.00,CLR,,0.00,WeatherDisplay:10.37,2013-03-01 23:23:00,
2013-03-01 17:28:00,25.0,16.6,30.25,North,0,4.6,4.9,70,0.00,CLR,,0.00,WeatherDisplay:10.37,2013-03-01 23:28:00,
2013-03-01 17:33:00,25.0,16.6,30.25,NNE,22,4.6,4.6,70,0.00,CLR,,0.00,WeatherDisplay:10.37,2013-03-01 23:33:00,
2013-03-01 17:38:00,24.8,16.4,30.26,NNE,22,3.5,3.5,70,0.00,CLR,,0.00,WeatherDisplay:10.37,2013-03-01 23:38:00,
2013-03-01 17:43:00,24.8,16.4,30.26,North,0,4.6,4.6,70,0.00,CLR,,0.00,WeatherDisplay:10.37,2013-03-01 23:43:00,
2013-03-01 17:48:00,24.4,16.1,30.26,North,0,2.4,2.4,70,0.00,CLR,,0.00,WeatherDisplay:10.37,2013-03-01 23:48:00,
2013-03-01 17:53:00,24.4,15.7,30.26,North,0,4.6,4.6,69,0.00,CLR,,0.00,WeatherDisplay:10.37,2013-03-01 23:53:00,
2013-03-01 17:58:00,24.4,15.7,30.26,North,0,7.3,7.8,69,0.00,CLR,,0.00,WeatherDisplay:10.37,2013-03-01 23:58:00,
2013-03-01 18:03:00,24.3,15.5,30.27,NNE,22,3.5,3.5,69,0.00,CLR,,0.00,WeatherDisplay:10.37,2013-03-02 00:03:00,
2013-03-01 18:08:00,24.3,15.5,30.26,North,0,3.5,4.0,69,0.00,CLR,,0.00,WeatherDisplay:10.37,2013-03-02 00:08:00,
2013-03-01 18:13:00,24.1,15.4,30.27,North,0,4.6,4.6,69,0.00,CLR,,0.00,WeatherDisplay:10.37,2013-03-02 00:13:00,
2013-03-01 18:18:00,23.9,14.9,30.27,North,0,3.5,3.5,68,0.00,CLR,,0.00,WeatherDisplay:10.37,2013-03-02 00:18:00,
2013-03-01 18:23:00,23.7,15.0,30.27,NNE,22,4.9,5.2,69,0.00,CLR,,0.00,WeatherDisplay:10.37,2013-03-02 00:23:00,
2013-03-01 18:28:00,23.5,14.5,30.27,North,0,1.6,1.7,68,0.00,CLR,,0.00,WeatherDisplay:10.37,2013-03-02 00:28:00,
2013-03-01 18:33:00,23.5,14.9,30.27,North,0,0.0,0.0,69,0.00,CLR,,0.00,WeatherDisplay:10.37,2013-03-02 00:33:00,
2013-03-01 18:38:00,23.5,14.9,30.28,NNE,22,2.4,2.6,69,0.00,CLR,,0.00,WeatherDisplay:10.37,2013-03-02 00:38:00,
2013-03-01 18:43:00,23.4,14.4,30.28,NNE,22,4.6,4.6,68,0.00,CLR,,0.00,WeatherDisplay:10.37,2013-03-02 00:43:00,
2013-03-01 18:48:00,23.2,13.8,30.28,NNE,22,6.2,6.2,67,0.00,CLR,,0.00,WeatherDisplay:10.37,2013-03-02 00:48:00,
2013-03-01 18:53:00,23.2,13.8,30.28,North,0,0.0,0.0,67,0.00,CLR,,0.00,WeatherDisplay:10.37,2013-03-02 00:53:00,
2013-03-01 18:58:00,23.2,13.8,30.28,North,0,4.6,5.2,67,0.00,CLR,,0.00,WeatherDisplay:10.37,2013-03-02 00:58:00,
2013-03-01 19:03:00,23.2,13.8,30.28,NNE,22,0.0,0.0,67,0.00,CLR,,0.00,WeatherDisplay:10.37,2013-03-02 01:03:00,
2013-03-01 19:08:00,23.2,13.8,30.28,North,0,0.0,0.0,67,0.00,CLR,,0.00,WeatherDisplay:10.37,2013-03-02 01:08:00,
2013-03-01 19:13:00,23.2,13.8,30.28,North,0,1.1,1.7,67,0.00,CLR,,0.00,WeatherDisplay:10.37,2013-03-02 01:13:00,
2013-03-01 19:18:00,23.2,13.8,30.28,North,0,0.0,0.0,67,0.00,CLR,,0.00,WeatherDisplay:10.37,2013-03-02 01:18:00,
2013-03-01 19:23:00,23.2,14.2,30.28,NNE,22,1.1,1.1,68,0.00,CLR,,0.00,WeatherDisplay:10.37,2013-03-02 01:23:00,
2013-03-01 19:28:00,23.0,13.7,30.28,NNE,22,2.4,2.4,67,0.00,CLR,,0.00,WeatherDisplay:10.37,2013-03-02 01:28:00,
2013-03-01 19:33:00,22.8,13.5,30.28,North,0,0.0,0.0,67,0.00,CLR,,0.00,WeatherDisplay:10.37,2013-03-02 01:33:00,
2013-03-01 19:38:00,22.8,13.5,30.28,NNE,22,2.7,2.9,67,0.00,CLR,,0.00,WeatherDisplay:10.37,2013-03-02 01:38:00,
2013-03-01 19:43:00,22.8,13.5,30.30,North,0,1.4,1.4,67,0.00,CLR,,0.00,WeatherDisplay:10.37,2013-03-02 01:43:00,
2013-03-01 19:48:00,22.6,13.3,30.28,NNE,22,2.3,2.5,67,0.00,CLR,,0.00,WeatherDisplay:10.37,2013-03-02 01:48:00,
2013-03-01 19:53:00,22.6,13.3,30.28,North,0,2.3,2.3,67,0.00,CLR,,0.00,WeatherDisplay:10.37,2013-03-02 01:53:00,
2013-03-01 19:58:00,22.6,13.3,30.28,North,0,2.3,2.3,67,0.00,CLR,,0.00,WeatherDisplay:10.37,2013-03-02 01:58:00,
2013-03-01 20:03:00,22.6,13.3,30.28,NNE,22,0.0,0.0,67,0.00,CLR,,0.00,WeatherDisplay:10.37,2013-03-02 02:03:00,
2013-03-01 20:08:00,22.6,13.3,30.28,NNE,22,5.8,5.8,67,0.00,CLR,,0.00,WeatherDisplay:10.37,2013-03-02 02:08:00,
2013-03-01 20:13:00,22.6,13.3,30.28,North,0,2.3,2.3,67,0.00,CLR,,0.00,WeatherDisplay:10.37,2013-03-02 02:13:00,
2013-03-01 20:18:00,22.5,13.2,30.30,NNE,22,5.8,6.0,67,0.00,CLR,,0.00,WeatherDisplay:10.37,2013-03-02 02:18:00,
2013-03-01 20:23:00,22.5,13.2,30.28,NNE,22,2.4,2.6,67,0.00,CLR,,0.00,WeatherDisplay:10.37,2013-03-02 02:23:00,
2013-03-01 20:28:00,22.5,13.2,30.30,NNE,22,4.6,4.6,67,0.00,CLR,,0.00,WeatherDisplay:10.37,2013-03-02 02:28:00,
2013-03-01 20:33:00,22.3,13.0,30.30,NNE,22,5.8,5.8,67,0.00,CLR,,0.00,WeatherDisplay:10.37,2013-03-02 02:33:00,
2013-03-01 20:38:00,22.5,13.2,30.30,NNE,22,0.0,0.0,67,0.00,CLR,,0.00,WeatherDisplay:10.37,2013-03-02 02:38:00,
2013-03-01 20:43:00,22.5,13.5,30.30,NNE,22,4.6,4.6,68,0.00,CLR,,0.00,WeatherDisplay:10.37,2013-03-02 02:43:00,
2013-03-01 20:48:00,22.5,13.5,30.30,NNE,22,1.1,1.2,68,0.00,CLR,,0.00,WeatherDisplay:10.37,2013-03-02 02:48:00,
2013-03-01 20:53:00,22.5,13.5,30.30,NNE,22,5.8,6.7,68,0.00,CLR,,0.00,WeatherDisplay:10.37,2013-03-02 02:53:00,
2013-03-01 20:58:00,22.3,13.3,30.28,NNE,22,6.9,6.9,68,0.00,CLR,,0.00,WeatherDisplay:10.37,2013-03-02 02:58:00,
2013-03-01 21:03:00,22.1,13.1,30.30,NNE,22,1.1,1.1,68,0.00,CLR,,0.00,WeatherDisplay:10.37,2013-03-02 03:03:00,
2013-03-01 21:08:00,22.1,13.1,30.30,NNE,22,0.0,0.0,68,0.00,CLR,,0.00,WeatherDisplay:10.37,2013-03-02 03:08:00,
2013-03-01 21:13:00,22.1,13.1,30.30,NNE,22,5.8,5.8,68,0.00,CLR,,0.00,WeatherDisplay:10.37,2013-03-02 03:13:00,
2013-03-01 21:18:00,22.1,13.5,30.30,NNE,22,2.7,2.9,69,0.00,CLR,,0.00,WeatherDisplay:10.37,2013-03-02 03:18:00,
2013-03-01 21:23:00,22.3,13.6,30.30,NNE,22,3.5,3.5,69,0.00,CLR,,0.00,WeatherDisplay:10.37,2013-03-02 03:23:00,
2013-03-01 21:28:00,22.5,13.8,30.30,NNE,22,5.8,5.8,69,0.00,CLR,,0.00,WeatherDisplay:10.37,2013-03-02 03:28:00,
2013-03-01 21:33:00,22.3,13.6,30.30,NNE,22,1.1,1.1,69,0.00,CLR,,0.00,WeatherDisplay:10.37,2013-03-02 03:33:00,
2013-03-01 21:38:00,22.5,13.8,30.30,NNE,22,6.9,7.5,69,0.00,CLR,,0.00,WeatherDisplay:10.37,2013-03-02 03:38:00,
2013-03-01 21:43:00,22.5,13.8,30.30,NNE,22,4.6,4.6,69,0.00,CLR,,0.00,WeatherDisplay:10.37,2013-03-02 03:43:00,
2013-03-01 21:48:00,22.5,13.8,30.30,NNE,22,0.0,0.0,69,0.00,CLR,,0.00,WeatherDisplay:10.37,2013-03-02 03:48:00,
2013-03-01 21:53:00,22.5,13.8,30.30,NNE,22,0.0,0.0,69,0.00,CLR,,0.00,WeatherDisplay:10.37,2013-03-02 03:53:00,
2013-03-01 21:58:00,22.5,13.8,30.30,North,0,0.0,0.0,69,0.00,CLR,,0.00,WeatherDisplay:10.37,2013-03-02 03:58:00,
2013-03-01 22:03:00,22.5,13.8,30.30,North,0,0.0,0.0,69,0.00,CLR,,0.00,WeatherDisplay:10.37,2013-03-02 04:03:00,
2013-03-01 22:08:00,22.6,14.0,30.30,North,0,0.0,0.0,69,0.00,CLR,,0.00,WeatherDisplay:10.37,2013-03-02 04:08:00,
2013-03-01 22:13:00,22.6,14.0,30.30,North,0,0.0,0.0,69,0.00,CLR,,0.00,WeatherDisplay:10.37,2013-03-02 04:13:00,
2013-03-01 22:18:00,22.6,14.0,30.30,NNE,22,3.5,4.1,69,0.00,CLR,,0.00,WeatherDisplay:10.37,2013-03-02 04:18:00,
2013-03-01 22:23:00,22.6,14.0,30.30,NNE,22,0.0,0.0,69,0.00,CLR,,0.00,WeatherDisplay:10.37,2013-03-02 04:23:00,
2013-03-01 22:28:00,22.6,14.0,30.30,NNE,22,2.3,2.3,69,0.00,CLR,,0.00,WeatherDisplay:10.37,2013-03-02 04:28:00,
2013-03-01 22:33:00,22.6,14.0,30.30,NNE,22,1.1,1.4,69,0.00,CLR,,0.00,WeatherDisplay:10.37,2013-03-02 04:33:00,
2013-03-01 22:38:00,22.6,14.0,30.30,NNE,22,2.3,2.3,69,0.00,CLR,,0.00,WeatherDisplay:10.37,2013-03-02 04:38:00,
2013-03-01 22:43:00,22.6,14.0,30.30,NNE,22,0.0,0.0,69,0.00,CLR,,0.00,WeatherDisplay:10.37,2013-03-02 04:43:00,
2013-03-01 22:48:00,22.6,14.0,30.30,NNE,22,0.0,0.0,69,0.00,CLR,,0.00,WeatherDisplay:10.37,2013-03-02 04:48:00,
2013-03-01 22:53:00,22.6,14.0,30.30,NNE,22,0.0,0.0,69,0.00,CLR,,0.00,WeatherDisplay:10.37,2013-03-02 04:53:00,
2013-03-01 22:58:00,22.6,14.0,30.30,NNE,22,0.0,0.0,69,0.00,CLR,,0.00,WeatherDisplay:10.37,2013-03-02 04:58:00,
2013-03-01 23:00:00,22.6,14.0,30.30,NNE,22,0.0,0.0,69,0.00,CLR,,0.00,WeatherDisplay:10.37,2013-03-02 05:00:00,
2013-03-01 23:03:00,22.6,14.0,30.30,NNE,22,0.0,0.0,69,0.00,CLR,,0.00,WeatherDisplay:10.37,2013-03-02 05:03:00,
2013-03-01 23:08:00,22.6,14.0,30.30,NNE,22,0.0,0.0,69,0.00,CLR,,0.00,WeatherDisplay:10.37,2013-03-02 05:08:00,
2013-03-01 23:13:00,22.6,14.0,30.30,NNE,22,0.0,0.0,69,0.00,CLR,,0.00,WeatherDisplay:10.37,2013-03-02 05:13:00,
2013-03-01 23:18:00,22.6,14.0,30.30,NNE,22,0.0,0.0,69,0.00,CLR,,0.00,WeatherDisplay:10.37,2013-03-02 05:18:00,
2013-03-01 23:23:00,22.6,14.0,30.30,NNE,22,0.0,0.0,69,0.00,CLR,,0.00,WeatherDisplay:10.37,2013-03-02 05:23:00,
2013-03-01 23:28:00,22.5,13.8,30.30,North,0,3.5,0.0,69,0.00,CLR,,0.00,WeatherDisplay:10.37,2013-03-02 05:28:00,
2013-03-01 23:33:00,22.5,13.8,30.30,North,0,3.5,0.0,69,0.00,CLR,,0.00,WeatherDisplay:10.37,2013-03-02 05:33:00,
2013-03-01 23:38:00,22.5,13.8,30.30,North,0,3.5,0.0,69,0.00,CLR,,0.00,WeatherDisplay:10.37,2013-03-02 05:38:00,
2013-03-01 23:43:00,22.5,13.8,30.30,North,0,4.6,4.6,69,0.00,CLR,,0.00,WeatherDisplay:10.37,2013-03-02 05:43:00,
2013-03-01 23:48:00,22.5,13.8,30.30,North,0,4.6,4.6,69,0.00,CLR,,0.00,WeatherDisplay:10.37,2013-03-02 05:48:00,
2013-03-01 23:53:00,22.5,13.8,30.30,North,0,4.6,4.9,69,0.00,CLR,,0.00,WeatherDisplay:10.37,2013-03-02 05:53:00,
2013-03-01 23:58:00,22.5,13.8,30.30,North,0,0.0,4.9,69,0.00,CLR,,0.00,WeatherDisplay:10.37,2013-03-02 05:58:00,